sensor_id;sensor_type;location;lat;lon;timestamp;temperature;humidity
10417;DHT22;62605;49.432;8.680;2023-11-22T00:16:59;6.70;99.90
10417;DHT22;62605;49.432;8.680;2023-11-22T00:19:31;6.40;99.90
10417;DHT22;62605;49.432;8.680;2023-11-22T00:22:12;6.40;99.90
10417;DHT22;62605;49.432;8.680;2023-11-22T00:24:54;6.40;99.90
10417;DHT22;62605;49.432;8.680;2023-11-22T00:27:22;6.30;99.90
10417;DHT22;62605;49.432;8.680;2023-11-22T00:29:56;6.30;99.90
10417;DHT22;62605;49.432;8.680;2023-11-22T00:32:28;6.20;99.90
10417;DHT22;62605;49.432;8.680;2023-11-22T00:35:01;6.20;99.90
10417;DHT22;62605;49.432;8.680;2023-11-22T00:37:30;6.10;99.90
10417;DHT22;62605;49.432;8.680;2023-11-22T00:39:58;6.10;99.90
10417;DHT22;62605;49.432;8.680;2023-11-22T00:42:26;6.10;99.90
10417;DHT22;62605;49.432;8.680;2023-11-22T00:44:53;6.00;99.90
10417;DHT22;62605;49.432;8.680;2023-11-22T00:47:21;6.00;99.90
10417;DHT22;62605;49.432;8.680;2023-11-22T00:49:50;5.90;99.90
10417;DHT22;62605;49.432;8.680;2023-11-22T00:52:17;5.90;99.90
10417;DHT22;62605;49.432;8.680;2023-11-22T00:54:45;5.80;99.90
10417;DHT22;62605;49.432;8.680;2023-11-22T00:57:12;5.80;99.90
10417;DHT22;62605;49.432;8.680;2023-11-22T00:59:40;5.90;99.90
10417;DHT22;62605;49.432;8.680;2023-11-22T01:02:08;5.80;99.90
10417;DHT22;62605;49.432;8.680;2023-11-22T01:04:36;5.80;99.90
10417;DHT22;62605;49.432;8.680;2023-11-22T01:07:04;5.70;99.90
10417;DHT22;62605;49.432;8.680;2023-11-22T01:09:32;5.70;99.90
10417;DHT22;62605;49.432;8.680;2023-11-22T01:12:00;5.70;99.90
10417;DHT22;62605;49.432;8.680;2023-11-22T01:14:29;5.60;99.90
10417;DHT22;62605;49.432;8.680;2023-11-22T01:16:56;5.50;99.90
10417;DHT22;62605;49.432;8.680;2023-11-22T01:19:23;5.50;99.90
10417;DHT22;62605;49.432;8.680;2023-11-22T01:21:51;5.50;99.90
10417;DHT22;62605;49.432;8.680;2023-11-22T01:24:20;5.40;99.90
10417;DHT22;62605;49.432;8.680;2023-11-22T01:26:48;5.50;99.90
10417;DHT22;62605;49.432;8.680;2023-11-22T01:29:15;5.50;99.90
10417;DHT22;62605;49.432;8.680;2023-11-22T01:31:42;5.40;99.90
10417;DHT22;62605;49.432;8.680;2023-11-22T01:34:10;5.30;99.90
10417;DHT22;62605;49.432;8.680;2023-11-22T01:36:42;5.30;99.90
10417;DHT22;62605;49.432;8.680;2023-11-22T01:39:11;5.20;99.90
10417;DHT22;62605;49.432;8.680;2023-11-22T01:41:41;5.10;99.90
10417;DHT22;62605;49.432;8.680;2023-11-22T01:44:11;5.10;99.90
10417;DHT22;62605;49.432;8.680;2023-11-22T01:46:38;5.10;99.90
10417;DHT22;62605;49.432;8.680;2023-11-22T01:49:06;5.10;99.90
10417;DHT22;62605;49.432;8.680;2023-11-22T01:51:41;5.00;99.90
10417;DHT22;62605;49.432;8.680;2023-11-22T01:54:09;4.90;99.90
10417;DHT22;62605;49.432;8.680;2023-11-22T01:56:40;4.90;99.90
10417;DHT22;62605;49.432;8.680;2023-11-22T01:59:09;4.90;99.90
10417;DHT22;62605;49.432;8.680;2023-11-22T02:01:38;4.80;99.90
10417;DHT22;62605;49.432;8.680;2023-11-22T02:04:06;4.70;99.90
10417;DHT22;62605;49.432;8.680;2023-11-22T02:06:35;4.60;99.90
10417;DHT22;62605;49.432;8.680;2023-11-22T02:09:03;4.50;99.90
10417;DHT22;62605;49.432;8.680;2023-11-22T02:11:32;4.60;99.90
10417;DHT22;62605;49.432;8.680;2023-11-22T02:14:01;4.60;99.90
10417;DHT22;62605;49.432;8.680;2023-11-22T02:16:29;4.60;99.90
10417;DHT22;62605;49.432;8.680;2023-11-22T02:18:57;4.50;99.90
10417;DHT22;62605;49.432;8.680;2023-11-22T02:21:25;4.40;99.90
10417;DHT22;62605;49.432;8.680;2023-11-22T02:23:53;4.30;99.90
10417;DHT22;62605;49.432;8.680;2023-11-22T02:26:20;4.30;99.90
10417;DHT22;62605;49.432;8.680;2023-11-22T02:28:48;4.30;99.90
10417;DHT22;62605;49.432;8.680;2023-11-22T02:31:15;4.20;99.90
10417;DHT22;62605;49.432;8.680;2023-11-22T02:33:43;4.30;99.90
10417;DHT22;62605;49.432;8.680;2023-11-22T02:36:11;4.30;99.90
10417;DHT22;62605;49.432;8.680;2023-11-22T02:38:39;4.20;99.90
10417;DHT22;62605;49.432;8.680;2023-11-22T02:41:09;4.20;99.90
10417;DHT22;62605;49.432;8.680;2023-11-22T02:43:36;4.20;99.90
10417;DHT22;62605;49.432;8.680;2023-11-22T02:46:04;4.10;99.90
10417;DHT22;62605;49.432;8.680;2023-11-22T02:48:32;4.10;99.90
10417;DHT22;62605;49.432;8.680;2023-11-22T02:51:02;4.00;99.90
10417;DHT22;62605;49.432;8.680;2023-11-22T02:53:30;4.00;99.90
10417;DHT22;62605;49.432;8.680;2023-11-22T02:55:59;4.00;99.90
10417;DHT22;62605;49.432;8.680;2023-11-22T02:58:29;3.90;99.90
10417;DHT22;62605;49.432;8.680;2023-11-22T03:00:56;4.00;99.90
10417;DHT22;62605;49.432;8.680;2023-11-22T03:03:24;3.90;99.90
10417;DHT22;62605;49.432;8.680;2023-11-22T03:05:51;3.80;99.90
10417;DHT22;62605;49.432;8.680;2023-11-22T03:08:19;3.80;99.90
10417;DHT22;62605;49.432;8.680;2023-11-22T03:10:47;3.70;99.90
10417;DHT22;62605;49.432;8.680;2023-11-22T03:13:17;3.70;99.90
10417;DHT22;62605;49.432;8.680;2023-11-22T03:15:46;3.70;99.90
10417;DHT22;62605;49.432;8.680;2023-11-22T03:18:13;3.70;99.90
10417;DHT22;62605;49.432;8.680;2023-11-22T03:20:42;3.70;99.90
10417;DHT22;62605;49.432;8.680;2023-11-22T03:23:12;3.70;99.90
10417;DHT22;62605;49.432;8.680;2023-11-22T03:29:06;3.60;99.90
10417;DHT22;62605;49.432;8.680;2023-11-22T03:31:35;3.50;99.90
10417;DHT22;62605;49.432;8.680;2023-11-22T03:34:11;3.40;99.90
10417;DHT22;62605;49.432;8.680;2023-11-22T03:36:40;3.40;99.90
10417;DHT22;62605;49.432;8.680;2023-11-22T03:39:07;3.50;99.90
10417;DHT22;62605;49.432;8.680;2023-11-22T03:41:41;3.30;99.90
10417;DHT22;62605;49.432;8.680;2023-11-22T03:44:09;3.10;99.90
10417;DHT22;62605;49.432;8.680;2023-11-22T03:46:38;3.20;99.90
10417;DHT22;62605;49.432;8.680;2023-11-22T03:49:07;3.10;99.90
10417;DHT22;62605;49.432;8.680;2023-11-22T03:51:42;3.10;99.90
10417;DHT22;62605;49.432;8.680;2023-11-22T03:54:12;3.00;99.90
10417;DHT22;62605;49.432;8.680;2023-11-22T03:56:45;2.90;99.90
10417;DHT22;62605;49.432;8.680;2023-11-22T03:59:13;2.90;99.90
10417;DHT22;62605;49.432;8.680;2023-11-22T04:01:42;3.00;99.90
10417;DHT22;62605;49.432;8.680;2023-11-22T04:04:10;2.80;99.90
10417;DHT22;62605;49.432;8.680;2023-11-22T04:06:37;2.80;99.90
10417;DHT22;62605;49.432;8.680;2023-11-22T04:09:07;2.80;99.90
10417;DHT22;62605;49.432;8.680;2023-11-22T04:11:34;2.70;99.90
10417;DHT22;62605;49.432;8.680;2023-11-22T04:14:02;2.80;99.90
10417;DHT22;62605;49.432;8.680;2023-11-22T04:16:30;2.60;99.90
10417;DHT22;62605;49.432;8.680;2023-11-22T04:18:59;2.60;99.90
10417;DHT22;62605;49.432;8.680;2023-11-22T04:21:26;2.60;99.90
10417;DHT22;62605;49.432;8.680;2023-11-22T04:23:54;2.60;99.90
10417;DHT22;62605;49.432;8.680;2023-11-22T04:26:22;2.60;99.90
10417;DHT22;62605;49.432;8.680;2023-11-22T04:28:52;2.50;99.90
10417;DHT22;62605;49.432;8.680;2023-11-22T04:31:22;2.70;99.90
10417;DHT22;62605;49.432;8.680;2023-11-22T04:33:50;2.60;99.90
10417;DHT22;62605;49.432;8.680;2023-11-22T04:36:21;2.60;99.90
10417;DHT22;62605;49.432;8.680;2023-11-22T04:38:49;2.60;99.90
10417;DHT22;62605;49.432;8.680;2023-11-22T04:41:22;2.60;99.90
10417;DHT22;62605;49.432;8.680;2023-11-22T04:43:51;2.40;99.90
10417;DHT22;62605;49.432;8.680;2023-11-22T04:46:19;2.40;99.90
10417;DHT22;62605;49.432;8.680;2023-11-22T04:48:48;2.40;99.90
10417;DHT22;62605;49.432;8.680;2023-11-22T04:51:38;2.50;99.90
10417;DHT22;62605;49.432;8.680;2023-11-22T04:54:07;2.70;99.90
10417;DHT22;62605;49.432;8.680;2023-11-22T04:56:36;2.60;99.90
10417;DHT22;62605;49.432;8.680;2023-11-22T04:59:07;2.60;99.90
10417;DHT22;62605;49.432;8.680;2023-11-22T05:01:36;2.70;99.90
10417;DHT22;62605;49.432;8.680;2023-11-22T05:04:04;2.80;99.90
10417;DHT22;62605;49.432;8.680;2023-11-22T05:06:55;2.80;99.90
10417;DHT22;62605;49.432;8.680;2023-11-22T05:16:44;2.80;99.90
10417;DHT22;62605;49.432;8.680;2023-11-22T05:19:12;2.70;99.90
10417;DHT22;62605;49.432;8.680;2023-11-22T05:21:40;2.50;99.90
10417;DHT22;62605;49.432;8.680;2023-11-22T05:24:34;2.40;99.90
10417;DHT22;62605;49.432;8.680;2023-11-22T06:41:30;2.40;99.90
10417;DHT22;62605;49.432;8.680;2023-11-22T06:43:59;2.50;99.90
10417;DHT22;62605;49.432;8.680;2023-11-22T06:46:26;2.50;95.20
10417;DHT22;62605;49.432;8.680;2023-11-22T06:48:55;2.50;97.10
10417;DHT22;62605;49.432;8.680;2023-11-22T06:51:24;2.50;93.70
10417;DHT22;62605;49.432;8.680;2023-11-22T06:53:52;2.50;83.90
10417;DHT22;62605;49.432;8.680;2023-11-22T06:56:20;2.40;83.80
10417;DHT22;62605;49.432;8.680;2023-11-22T06:58:50;2.50;81.10
10417;DHT22;62605;49.432;8.680;2023-11-22T07:01:17;2.40;71.50
10417;DHT22;62605;49.432;8.680;2023-11-22T07:03:44;2.40;77.40
10417;DHT22;62605;49.432;8.680;2023-11-22T07:06:12;2.40;90.70
10417;DHT22;62605;49.432;8.680;2023-11-22T07:08:38;2.40;81.10
10417;DHT22;62605;49.432;8.680;2023-11-22T07:11:06;2.20;82.90
10417;DHT22;62605;49.432;8.680;2023-11-22T07:13:35;2.30;68.90
10417;DHT22;62605;49.432;8.680;2023-11-22T07:16:06;2.10;67.20
10417;DHT22;62605;49.432;8.680;2023-11-22T07:18:33;2.00;72.90
10417;DHT22;62605;49.432;8.680;2023-11-22T07:21:00;2.00;80.30
10417;DHT22;62605;49.432;8.680;2023-11-22T07:23:28;1.90;79.20
10417;DHT22;62605;49.432;8.680;2023-11-22T07:25:55;2.00;78.60
10417;DHT22;62605;49.432;8.680;2023-11-22T07:28:22;2.10;88.70
10417;DHT22;62605;49.432;8.680;2023-11-22T07:30:50;2.10;90.70
10417;DHT22;62605;49.432;8.680;2023-11-22T07:33:19;2.20;90.60
10417;DHT22;62605;49.432;8.680;2023-11-22T07:35:46;2.10;71.50
10417;DHT22;62605;49.432;8.680;2023-11-22T07:38:14;2.20;59.00
10417;DHT22;62605;49.432;8.680;2023-11-22T07:40:43;2.10;51.60
10417;DHT22;62605;49.432;8.680;2023-11-22T07:43:10;2.10;51.40
10417;DHT22;62605;49.432;8.680;2023-11-22T07:45:37;2.20;50.00
10417;DHT22;62605;49.432;8.680;2023-11-22T07:48:05;2.20;51.10
10417;DHT22;62605;49.432;8.680;2023-11-22T07:50:34;2.10;50.30
10417;DHT22;62605;49.432;8.680;2023-11-22T07:53:01;2.20;49.50
10417;DHT22;62605;49.432;8.680;2023-11-22T07:55:30;2.20;52.50
10417;DHT22;62605;49.432;8.680;2023-11-22T07:57:58;2.30;46.60
10417;DHT22;62605;49.432;8.680;2023-11-22T08:00:25;2.30;49.00
10417;DHT22;62605;49.432;8.680;2023-11-22T08:02:52;2.30;40.00
10417;DHT22;62605;49.432;8.680;2023-11-22T08:05:20;2.30;41.30
10417;DHT22;62605;49.432;8.680;2023-11-22T08:07:50;2.40;30.80
10417;DHT22;62605;49.432;8.680;2023-11-22T08:10:18;2.40;30.60
10417;DHT22;62605;49.432;8.680;2023-11-22T08:12:46;2.50;28.90
10417;DHT22;62605;49.432;8.680;2023-11-22T08:15:15;2.50;28.80
10417;DHT22;62605;49.432;8.680;2023-11-22T08:17:43;2.60;23.70
10417;DHT22;62605;49.432;8.680;2023-11-22T08:20:11;2.70;29.50
10417;DHT22;62605;49.432;8.680;2023-11-22T08:22:39;2.60;34.00
10417;DHT22;62605;49.432;8.680;2023-11-22T08:25:09;2.60;21.70
10417;DHT22;62605;49.432;8.680;2023-11-22T08:27:38;2.70;16.70
10417;DHT22;62605;49.432;8.680;2023-11-22T08:30:08;2.70;19.80
10417;DHT22;62605;49.432;8.680;2023-11-22T08:32:40;2.80;14.70
10417;DHT22;62605;49.432;8.680;2023-11-22T08:35:09;2.80;20.40
10417;DHT22;62605;49.432;8.680;2023-11-22T08:37:40;2.90;19.40
10417;DHT22;62605;49.432;8.680;2023-11-22T08:40:10;2.90;25.90
10417;DHT22;62605;49.432;8.680;2023-11-22T08:42:39;2.90;15.60
10417;DHT22;62605;49.432;8.680;2023-11-22T08:45:08;2.90;9.70
10417;DHT22;62605;49.432;8.680;2023-11-22T08:47:39;3.10;8.40
10417;DHT22;62605;49.432;8.680;2023-11-22T08:50:07;3.10;7.70
10417;DHT22;62605;49.432;8.680;2023-11-22T08:52:36;3.00;1.00
10417;DHT22;62605;49.432;8.680;2023-11-22T08:55:05;3.10;2.00
10417;DHT22;62605;49.432;8.680;2023-11-22T08:57:35;3.20;1.00
10417;DHT22;62605;49.432;8.680;2023-11-22T09:00:03;3.30;1.00
10417;DHT22;62605;49.432;8.680;2023-11-22T09:02:34;3.30;1.00
10417;DHT22;62605;49.432;8.680;2023-11-22T09:05:03;3.40;1.00
10417;DHT22;62605;49.432;8.680;2023-11-22T09:07:32;3.30;1.00
10417;DHT22;62605;49.432;8.680;2023-11-22T09:10:01;3.20;1.00
10417;DHT22;62605;49.432;8.680;2023-11-22T09:12:36;3.30;1.00
10417;DHT22;62605;49.432;8.680;2023-11-22T09:15:07;3.30;1.00
10417;DHT22;62605;49.432;8.680;2023-11-22T09:17:36;3.30;1.00
10417;DHT22;62605;49.432;8.680;2023-11-22T09:20:09;3.50;1.00
10417;DHT22;62605;49.432;8.680;2023-11-22T09:22:41;3.50;1.00
10417;DHT22;62605;49.432;8.680;2023-11-22T09:25:11;3.60;1.00
10417;DHT22;62605;49.432;8.680;2023-11-22T09:27:39;3.60;1.00
10417;DHT22;62605;49.432;8.680;2023-11-22T09:30:08;3.80;1.00
10417;DHT22;62605;49.432;8.680;2023-11-22T09:32:44;3.80;1.00
10417;DHT22;62605;49.432;8.680;2023-11-22T09:35:11;3.60;1.00
10417;DHT22;62605;49.432;8.680;2023-11-22T09:37:39;3.60;1.00
10417;DHT22;62605;49.432;8.680;2023-11-22T09:40:09;3.60;1.00
10417;DHT22;62605;49.432;8.680;2023-11-22T09:42:36;3.50;1.00
10417;DHT22;62605;49.432;8.680;2023-11-22T09:45:06;3.70;1.00
10417;DHT22;62605;49.432;8.680;2023-11-22T09:47:33;3.60;1.00
10417;DHT22;62605;49.432;8.680;2023-11-22T09:50:02;3.60;1.00
10417;DHT22;62605;49.432;8.680;2023-11-22T09:52:33;3.60;1.00
10417;DHT22;62605;49.432;8.680;2023-11-22T09:55:02;3.50;1.00
10417;DHT22;62605;49.432;8.680;2023-11-22T09:57:30;3.60;1.00
10417;DHT22;62605;49.432;8.680;2023-11-22T10:00:01;3.70;1.00
10417;DHT22;62605;49.432;8.680;2023-11-22T10:02:30;3.70;1.00
10417;DHT22;62605;49.432;8.680;2023-11-22T10:04:57;3.70;1.00
10417;DHT22;62605;49.432;8.680;2023-11-22T10:07:24;3.70;1.00
10417;DHT22;62605;49.432;8.680;2023-11-22T10:09:52;3.70;1.00
10417;DHT22;62605;49.432;8.680;2023-11-22T10:12:19;3.80;1.00
10417;DHT22;62605;49.432;8.680;2023-11-22T10:14:49;3.90;1.00
10417;DHT22;62605;49.432;8.680;2023-11-22T10:17:16;3.90;1.00
10417;DHT22;62605;49.432;8.680;2023-11-22T10:19:46;3.90;1.00
10417;DHT22;62605;49.432;8.680;2023-11-22T10:22:13;3.90;1.00
10417;DHT22;62605;49.432;8.680;2023-11-22T10:24:44;3.90;1.00
10417;DHT22;62605;49.432;8.680;2023-11-22T10:27:12;4.00;1.00
10417;DHT22;62605;49.432;8.680;2023-11-22T10:29:41;4.00;1.00
10417;DHT22;62605;49.432;8.680;2023-11-22T10:32:11;3.90;1.00
10417;DHT22;62605;49.432;8.680;2023-11-22T10:34:38;4.00;1.00
10417;DHT22;62605;49.432;8.680;2023-11-22T10:37:07;4.10;1.00
10417;DHT22;62605;49.432;8.680;2023-11-22T10:39:35;4.10;1.00
10417;DHT22;62605;49.432;8.680;2023-11-22T10:42:05;4.20;1.00
10417;DHT22;62605;49.432;8.680;2023-11-22T10:44:35;4.10;1.00
10417;DHT22;62605;49.432;8.680;2023-11-22T10:47:05;4.10;1.00
10417;DHT22;62605;49.432;8.680;2023-11-22T10:49:32;4.10;1.00
10417;DHT22;62605;49.432;8.680;2023-11-22T10:52:01;4.20;1.00
10417;DHT22;62605;49.432;8.680;2023-11-22T10:54:31;4.10;1.00
10417;DHT22;62605;49.432;8.680;2023-11-22T10:57:00;4.20;1.00
10417;DHT22;62605;49.432;8.680;2023-11-22T10:59:28;4.40;1.00
10417;DHT22;62605;49.432;8.680;2023-11-22T11:01:59;4.40;1.00
10417;DHT22;62605;49.432;8.680;2023-11-22T11:04:33;4.40;1.00
10417;DHT22;62605;49.432;8.680;2023-11-22T11:07:02;4.50;1.00
10417;DHT22;62605;49.432;8.680;2023-11-22T11:09:33;4.40;1.00
10417;DHT22;62605;49.432;8.680;2023-11-22T11:12:02;4.50;1.00
10417;DHT22;62605;49.432;8.680;2023-11-22T11:14:30;4.60;1.00
10417;DHT22;62605;49.432;8.680;2023-11-22T11:16:58;4.50;1.00
10417;DHT22;62605;49.432;8.680;2023-11-22T11:19:25;4.60;1.00
10417;DHT22;62605;49.432;8.680;2023-11-22T11:21:54;4.60;1.00
10417;DHT22;62605;49.432;8.680;2023-11-22T11:24:23;4.70;1.00
10417;DHT22;62605;49.432;8.680;2023-11-22T11:26:51;4.60;1.00
10417;DHT22;62605;49.432;8.680;2023-11-22T11:29:30;4.70;1.00
10417;DHT22;62605;49.432;8.680;2023-11-22T11:31:57;4.60;1.00
10417;DHT22;62605;49.432;8.680;2023-11-22T11:34:25;4.70;1.00
10417;DHT22;62605;49.432;8.680;2023-11-22T11:36:53;4.90;1.00
10417;DHT22;62605;49.432;8.680;2023-11-22T11:39:25;4.80;1.00
10417;DHT22;62605;49.432;8.680;2023-11-22T11:42:09;5.00;1.00
10417;DHT22;62605;49.432;8.680;2023-11-22T11:44:36;4.90;1.00
10417;DHT22;62605;49.432;8.680;2023-11-22T11:47:11;5.00;1.00
10417;DHT22;62605;49.432;8.680;2023-11-22T11:49:40;4.80;1.00
10417;DHT22;62605;49.432;8.680;2023-11-22T11:52:08;4.70;1.00
10417;DHT22;62605;49.432;8.680;2023-11-22T11:54:35;4.60;1.00
10417;DHT22;62605;49.432;8.680;2023-11-22T11:57:04;4.60;1.00
10417;DHT22;62605;49.432;8.680;2023-11-22T11:59:33;4.70;1.00
10417;DHT22;62605;49.432;8.680;2023-11-22T12:02:01;4.90;1.00
10417;DHT22;62605;49.432;8.680;2023-11-22T12:04:31;4.90;1.00
10417;DHT22;62605;49.432;8.680;2023-11-22T12:06:58;5.00;1.00
10417;DHT22;62605;49.432;8.680;2023-11-22T12:09:26;5.10;1.00
10417;DHT22;62605;49.432;8.680;2023-11-22T12:11:54;5.00;1.00
10417;DHT22;62605;49.432;8.680;2023-11-22T12:14:23;4.90;1.00
10417;DHT22;62605;49.432;8.680;2023-11-22T12:16:52;5.00;1.00
10417;DHT22;62605;49.432;8.680;2023-11-22T12:19:23;4.90;1.00
10417;DHT22;62605;49.432;8.680;2023-11-22T12:21:53;5.10;1.00
10417;DHT22;62605;49.432;8.680;2023-11-22T12:24:20;5.10;1.00
10417;DHT22;62605;49.432;8.680;2023-11-22T12:26:47;5.00;1.00
10417;DHT22;62605;49.432;8.680;2023-11-22T12:29:16;5.10;1.00
10417;DHT22;62605;49.432;8.680;2023-11-22T12:31:47;4.90;1.00
10417;DHT22;62605;49.432;8.680;2023-11-22T12:34:18;5.00;1.00
10417;DHT22;62605;49.432;8.680;2023-11-22T12:36:46;5.20;1.00
10417;DHT22;62605;49.432;8.680;2023-11-22T12:39:15;5.30;1.00
10417;DHT22;62605;49.432;8.680;2023-11-22T12:41:44;5.30;1.00
10417;DHT22;62605;49.432;8.680;2023-11-22T12:44:15;5.20;1.00
10417;DHT22;62605;49.432;8.680;2023-11-22T12:46:46;5.40;1.00
10417;DHT22;62605;49.432;8.680;2023-11-22T12:49:12;5.40;1.00
10417;DHT22;62605;49.432;8.680;2023-11-22T12:51:46;5.30;1.00
10417;DHT22;62605;49.432;8.680;2023-11-22T12:54:13;5.20;1.00
10417;DHT22;62605;49.432;8.680;2023-11-22T12:56:41;5.20;1.00
10417;DHT22;62605;49.432;8.680;2023-11-22T12:59:09;5.00;1.00
10417;DHT22;62605;49.432;8.680;2023-11-22T13:01:38;5.20;1.00
10417;DHT22;62605;49.432;8.680;2023-11-22T13:04:05;5.20;1.00
10417;DHT22;62605;49.432;8.680;2023-11-22T13:06:32;5.20;1.00
10417;DHT22;62605;49.432;8.680;2023-11-22T13:09:03;5.30;1.00
10417;DHT22;62605;49.432;8.680;2023-11-22T13:11:32;5.20;1.00
10417;DHT22;62605;49.432;8.680;2023-11-22T13:14:01;5.10;1.00
10417;DHT22;62605;49.432;8.680;2023-11-22T13:16:29;4.90;1.00
10417;DHT22;62605;49.432;8.680;2023-11-22T13:18:56;5.00;1.00
10417;DHT22;62605;49.432;8.680;2023-11-22T13:21:23;4.90;1.00
10417;DHT22;62605;49.432;8.680;2023-11-22T13:23:50;4.80;1.00
10417;DHT22;62605;49.432;8.680;2023-11-22T13:26:19;4.80;1.00
10417;DHT22;62605;49.432;8.680;2023-11-22T13:28:47;4.80;1.00
10417;DHT22;62605;49.432;8.680;2023-11-22T13:31:14;4.90;1.00
10417;DHT22;62605;49.432;8.680;2023-11-22T13:33:41;4.80;1.00
10417;DHT22;62605;49.432;8.680;2023-11-22T13:36:09;4.90;1.00
10417;DHT22;62605;49.432;8.680;2023-11-22T13:38:39;4.90;1.00
10417;DHT22;62605;49.432;8.680;2023-11-22T13:41:07;5.00;1.00
10417;DHT22;62605;49.432;8.680;2023-11-22T13:43:36;4.90;1.00
10417;DHT22;62605;49.432;8.680;2023-11-22T13:46:04;4.90;1.00
10417;DHT22;62605;49.432;8.680;2023-11-22T13:48:32;4.90;1.00
10417;DHT22;62605;49.432;8.680;2023-11-22T13:50:59;5.00;1.00
10417;DHT22;62605;49.432;8.680;2023-11-22T13:53:28;5.00;1.00
10417;DHT22;62605;49.432;8.680;2023-11-22T13:56:00;4.90;1.00
10417;DHT22;62605;49.432;8.680;2023-11-22T13:58:35;5.00;1.00
10417;DHT22;62605;49.432;8.680;2023-11-22T14:01:02;4.90;1.00
10417;DHT22;62605;49.432;8.680;2023-11-22T14:03:32;4.90;1.00
10417;DHT22;62605;49.432;8.680;2023-11-22T14:06:01;4.90;1.00
10417;DHT22;62605;49.432;8.680;2023-11-22T14:08:31;5.00;1.00
10417;DHT22;62605;49.432;8.680;2023-11-22T14:11:07;5.00;1.00
10417;DHT22;62605;49.432;8.680;2023-11-22T14:13:56;4.90;1.00
10417;DHT22;62605;49.432;8.680;2023-11-22T14:16:24;4.90;1.00
10417;DHT22;62605;49.432;8.680;2023-11-22T14:18:54;4.90;1.00
10417;DHT22;62605;49.432;8.680;2023-11-22T14:21:22;4.90;1.00
10417;DHT22;62605;49.432;8.680;2023-11-22T14:23:50;4.60;1.00
10417;DHT22;62605;49.432;8.680;2023-11-22T14:26:19;4.60;1.00
10417;DHT22;62605;49.432;8.680;2023-11-22T14:28:46;4.70;1.00
10417;DHT22;62605;49.432;8.680;2023-11-22T14:31:15;4.60;1.00
10417;DHT22;62605;49.432;8.680;2023-11-22T14:33:42;4.50;1.00
10417;DHT22;62605;49.432;8.680;2023-11-22T14:36:09;4.40;1.00
10417;DHT22;62605;49.432;8.680;2023-11-22T14:38:37;4.50;1.00
10417;DHT22;62605;49.432;8.680;2023-11-22T14:41:04;4.50;1.00
10417;DHT22;62605;49.432;8.680;2023-11-22T14:43:56;4.50;1.00
10417;DHT22;62605;49.432;8.680;2023-11-22T14:46:25;4.50;1.00
10417;DHT22;62605;49.432;8.680;2023-11-22T14:48:53;4.40;1.00
10417;DHT22;62605;49.432;8.680;2023-11-22T14:51:20;4.30;1.00
10417;DHT22;62605;49.432;8.680;2023-11-22T14:53:47;4.30;1.00
10417;DHT22;62605;49.432;8.680;2023-11-22T14:56:15;4.30;1.00
10417;DHT22;62605;49.432;8.680;2023-11-22T14:58:43;4.40;1.00
10417;DHT22;62605;49.432;8.680;2023-11-22T15:01:11;4.50;1.00
10417;DHT22;62605;49.432;8.680;2023-11-22T15:03:41;4.40;1.00
10417;DHT22;62605;49.432;8.680;2023-11-22T15:06:08;4.40;1.00
10417;DHT22;62605;49.432;8.680;2023-11-22T15:08:36;4.50;1.00
10417;DHT22;62605;49.432;8.680;2023-11-22T15:11:03;4.40;1.00
10417;DHT22;62605;49.432;8.680;2023-11-22T15:13:33;4.40;1.00
10417;DHT22;62605;49.432;8.680;2023-11-22T15:16:02;4.40;1.00
10417;DHT22;62605;49.432;8.680;2023-11-22T15:18:29;4.40;1.00
10417;DHT22;62605;49.432;8.680;2023-11-22T15:20:58;4.50;1.00
10417;DHT22;62605;49.432;8.680;2023-11-22T15:23:26;4.40;1.00
10417;DHT22;62605;49.432;8.680;2023-11-22T15:25:53;4.30;1.00
10417;DHT22;62605;49.432;8.680;2023-11-22T15:28:20;4.30;1.00
10417;DHT22;62605;49.432;8.680;2023-11-22T15:30:48;4.30;1.00
10417;DHT22;62605;49.432;8.680;2023-11-22T15:33:21;4.30;1.00
10417;DHT22;62605;49.432;8.680;2023-11-22T15:35:49;4.20;1.00
10417;DHT22;62605;49.432;8.680;2023-11-22T15:38:18;4.30;1.00
10417;DHT22;62605;49.432;8.680;2023-11-22T15:40:45;4.20;1.00
10417;DHT22;62605;49.432;8.680;2023-11-22T15:43:12;4.20;1.00
10417;DHT22;62605;49.432;8.680;2023-11-22T15:45:40;4.30;1.00
10417;DHT22;62605;49.432;8.680;2023-11-22T15:48:09;4.30;1.00
10417;DHT22;62605;49.432;8.680;2023-11-22T15:50:38;4.30;1.00
10417;DHT22;62605;49.432;8.680;2023-11-22T15:53:07;4.30;1.00
10417;DHT22;62605;49.432;8.680;2023-11-22T15:55:40;4.30;1.00
10417;DHT22;62605;49.432;8.680;2023-11-22T15:58:08;4.10;1.00
10417;DHT22;62605;49.432;8.680;2023-11-22T16:00:36;4.20;1.00
10417;DHT22;62605;49.432;8.680;2023-11-22T16:03:04;4.20;1.00
10417;DHT22;62605;49.432;8.680;2023-11-22T16:05:38;4.20;1.00
10417;DHT22;62605;49.432;8.680;2023-11-22T16:08:05;4.20;1.00
10417;DHT22;62605;49.432;8.680;2023-11-22T16:10:33;4.10;1.00
10417;DHT22;62605;49.432;8.680;2023-11-22T16:13:02;4.10;1.00
10417;DHT22;62605;49.432;8.680;2023-11-22T16:15:30;4.10;1.00
10417;DHT22;62605;49.432;8.680;2023-11-22T16:17:58;4.10;1.00
10417;DHT22;62605;49.432;8.680;2023-11-22T16:20:26;4.10;1.00
10417;DHT22;62605;49.432;8.680;2023-11-22T16:22:55;4.10;1.00
10417;DHT22;62605;49.432;8.680;2023-11-22T16:25:23;4.10;1.00
10417;DHT22;62605;49.432;8.680;2023-11-22T16:27:51;4.10;1.00
10417;DHT22;62605;49.432;8.680;2023-11-22T16:30:40;4.10;1.00
10417;DHT22;62605;49.432;8.680;2023-11-22T16:33:09;4.00;1.00
10417;DHT22;62605;49.432;8.680;2023-11-22T16:35:36;4.00;1.00
10417;DHT22;62605;49.432;8.680;2023-11-22T16:38:04;4.00;1.00
10417;DHT22;62605;49.432;8.680;2023-11-22T16:40:31;4.00;1.00
10417;DHT22;62605;49.432;8.680;2023-11-22T16:42:59;4.00;1.00
10417;DHT22;62605;49.432;8.680;2023-11-22T16:45:26;4.00;1.00
10417;DHT22;62605;49.432;8.680;2023-11-22T16:47:56;4.00;1.00
10417;DHT22;62605;49.432;8.680;2023-11-22T16:50:24;4.00;1.00
10417;DHT22;62605;49.432;8.680;2023-11-22T16:52:53;4.00;1.00
10417;DHT22;62605;49.432;8.680;2023-11-22T16:55:21;4.00;1.00
10417;DHT22;62605;49.432;8.680;2023-11-22T16:57:48;4.00;1.00
10417;DHT22;62605;49.432;8.680;2023-11-22T17:03:37;4.00;1.00
10417;DHT22;62605;49.432;8.680;2023-11-22T17:06:05;3.80;1.00
10417;DHT22;62605;49.432;8.680;2023-11-22T17:08:32;3.80;1.00
10417;DHT22;62605;49.432;8.680;2023-11-22T17:11:00;3.90;1.00
10417;DHT22;62605;49.432;8.680;2023-11-22T17:13:28;3.90;1.00
10417;DHT22;62605;49.432;8.680;2023-11-22T17:15:55;3.80;1.00
10417;DHT22;62605;49.432;8.680;2023-11-22T17:18:23;3.80;1.00
10417;DHT22;62605;49.432;8.680;2023-11-22T17:20:52;3.80;1.00
10417;DHT22;62605;49.432;8.680;2023-11-22T17:23:21;3.70;1.00
10417;DHT22;62605;49.432;8.680;2023-11-22T17:25:49;3.60;1.00
10417;DHT22;62605;49.432;8.680;2023-11-22T17:28:16;3.50;1.00
10417;DHT22;62605;49.432;8.680;2023-11-22T17:30:44;3.50;1.00
10417;DHT22;62605;49.432;8.680;2023-11-22T17:33:11;3.50;1.00
10417;DHT22;62605;49.432;8.680;2023-11-22T17:35:39;3.30;1.00
10417;DHT22;62605;49.432;8.680;2023-11-22T17:38:07;3.20;1.00
10417;DHT22;62605;49.432;8.680;2023-11-22T17:40:35;3.30;1.00
10417;DHT22;62605;49.432;8.680;2023-11-22T17:43:02;3.30;1.00
10417;DHT22;62605;49.432;8.680;2023-11-22T17:45:30;3.30;1.00
10417;DHT22;62605;49.432;8.680;2023-11-22T17:47:59;3.20;1.00
10417;DHT22;62605;49.432;8.680;2023-11-22T17:50:26;3.10;1.00